• Join FlightAware (Why Join?)
  • Login
  • US Flag 
05:14AM EDT


 

Airport Tracker/Info


-or-


 

Live Flight TrackerFlight Track Log ✈ DAL268 ✈ 12-Jun-2013 ✈ KSFO - KJFK

Flight Track Log - Related Links

Times and Time Zones

All times are in EDT time to prevent confusion due to time zone crossing. See the DAL268 flight status page for this flight to view local times or setup timezone preferences in your user account.

Time Position Orientation Groundspeed Altitude Reporting Facility
EDT Latitude Longitude Course Direction KTS MPH feet Rate Location/Type
02:31PM 37.6070 -122.3840 North 11 13  Level FlightAware
02:34PM 37.6060 -122.3830 142° Southeast  Level FlightAware
02:37PM 37.8194 -122.1640 38° Northeast  Level FlightAware Approximate
02:38PM 37.9192 -122.0641 38° Northeast  Level FlightAware Approximate
02:39PM 38.0101 -121.9600 35° Northeast  Level FlightAware Approximate
02:40PM 38.1148 -121.8683 35° Northeast  Level FlightAware Approximate
02:41PM 38.2149 -121.7684 38° Northeast  Level FlightAware Approximate
02:43PM 37.6110 -122.3780 31° Northeast 92 106  Level FlightAware
02:43PM 37.6329 -122.3640 27° Northeast 174 200 600 1,020 Climbing FlightAware ADS-B
02:44PM 37.6355 -122.3620 31° Northeast 175 201 700 2,220 Climbing FlightAware ADS-B
02:44PM 37.6383 -122.3590 40° Northeast 178 205 900 3,420 Climbing FlightAware ADS-B
02:44PM 37.6400 -122.3570 43° Northeast 181 208 1,100 3,300 Climbing FlightAware ADS-B
02:44PM 37.6431 -122.3520 52° Northeast 177 204 1,400 2,520 Climbing FlightAware ADS-B
02:44PM 37.6471 -122.3460 50° Northeast 180 207 1,700 1,980 Climbing FlightAware ADS-B
02:44PM 37.6535 -122.3380 45° Northeast 192 221 2,000 1,500 Climbing FlightAware ADS-B
02:44PM 37.6622 -122.3260 48° Northeast 214 246 2,300 1,440 Climbing FlightAware ADS-B
02:45PM 37.6732 -122.3120 45° Northeast 233 268 2,700 1,560 Climbing FlightAware ADS-B
02:45PM 37.6852 -122.2950 48° Northeast 257 296 3,100 2,100 Climbing FlightAware ADS-B
02:45PM 37.7062 -122.2660 48° Northeast 277 319 4,100 2,880 Climbing FlightAware ADS-B
02:46PM 37.7232 -122.2440 46° Northeast 276 318 5,300 3,480 Climbing FlightAware ADS-B
02:46PM 37.7378 -122.2240 47° Northeast 278 320 6,200 3,000 Climbing FlightAware ADS-B
02:46PM 37.7490 -122.2120 40° Northeast 284 327 6,700 2,280 Climbing FlightAware ADS-B
02:46PM 37.7595 -122.2010 40° Northeast 294 338 7,000 2,040 Climbing FlightAware ADS-B
02:46PM 37.7740 -122.1870 37° Northeast 303 349 7,500 2,640 Climbing FlightAware ADS-B
02:47PM 37.7915 -122.1710 36° Northeast 305 351 8,300 3,000 Climbing FlightAware ADS-B
02:47PM 37.8088 -122.1540 38° Northeast 309 356 9,000 2,280 Climbing FlightAware ADS-B
02:47PM 37.8265 -122.1370 37° Northeast 320 368 9,500 2,100 Climbing FlightAware ADS-B
02:48PM 37.8657 -122.1000 37° Northeast 336 387 10,700 1,920 Climbing FlightAware ADS-B
02:48PM 37.9059 -122.0630 36° Northeast 361 415 11,500 1,560 Climbing FlightAware ADS-B
02:49PM 37.9483 -122.0230 37° Northeast 390 449 12,300 1,320 Climbing FlightAware ADS-B
02:49PM 37.9949 -121.9790 37° Northeast 417 480 12,900 2,340 Climbing FlightAware ADS-B
02:50PM 38.0860 -121.8920 37° Northeast 410 472 16,000 2,400 Climbing FlightAware
02:51PM 38.1630 -121.8200 36° Northeast 436 502 17,400 1,920 Climbing FlightAware
02:52PM 38.2260 -121.7600 37° Northeast 440 506 18,800 1,740 Climbing FlightAware
02:52PM 38.2549 -121.7320 37° Northeast 447 514 19,000 360 Climbing FlightAware ADS-B
02:52PM 38.2773 -121.7080 40° Northeast 451 519 19,000  Level FlightAware ADS-B
02:53PM 38.3284 -121.6110 56° Northeast 448 516 19,000 120 Level FlightAware ADS-B
02:53PM 38.3554 -121.5530 59° Northeast 449 517 19,200 1,320 Climbing FlightAware ADS-B
02:54PM 38.3900 -121.4850 57° Northeast 449 517 20,300 1,860 Climbing FlightAware
02:54PM 38.4256 -121.4100 59° Northeast 449 517 21,200 1,680 Climbing FlightAware ADS-B
02:55PM 38.4592 -121.3390 59° Northeast 468 539 22,100 1,680 Climbing FlightAware ADS-B
02:55PM 38.4949 -121.2630 59° Northeast 474 545 23,000 1,680 Climbing FlightAware ADS-B
02:56PM 38.5300 -121.1890 59° Northeast 480 552 23,900 1,740 Climbing FlightAware
02:56PM 38.5527 -121.1390 60° Northeast 480 552 24,500 1,680 Climbing FlightAware ADS-B
02:57PM 38.6041 -121.0300 59° Northeast 489 563 25,700 1,500 Climbing FlightAware ADS-B
02:58PM 38.6440 -120.9440 59° Northeast 496 571 26,500 1,380 Climbing FlightAware ADS-B
02:58PM 38.6825 -120.8620 59° Northeast 500 575 27,300 1,260 Climbing FlightAware ADS-B
02:59PM 38.7240 -120.7730 59° Northeast 503 579 28,000 1,320 Climbing FlightAware
02:59PM 38.7750 -120.6620 59° Northeast 504 580 29,100 1,500 Climbing FlightAware
03:00PM 38.8220 -120.5610 59° Northeast 503 579 30,100 1,680 Climbing FlightAware
03:01PM 38.8750 -120.4460 59° Northeast 495 570 31,500 1,560 Climbing FlightAware
03:02PM 38.9210 -120.3450 60° Northeast 497 572 32,300 1,020 Climbing FlightAware
03:02PM 38.9740 -120.2300 59° Northeast 498 573 33,000 1,020 Climbing FlightAware
03:03PM 39.0200 -120.1290 60° Northeast 498 573 33,800 900 Climbing FlightAware
03:04PM 39.0670 -120.0240 60° Northeast 513 590 34,200 780 Climbing FlightAware
03:04PM 39.1160 -119.9180 59° Northeast 514 592 34,900 1,020 Climbing FlightAware
03:05PM 39.1630 -119.8130 60° Northeast 516 594 35,600 780 Climbing FlightAware
03:06PM 39.2150 -119.6970 60° Northeast 521 600 36,100 780 Climbing FlightAware
03:06PM 39.2600 -119.5960 60° Northeast 521 600 36,700 660 Climbing FlightAware
03:07PM 39.3100 -119.4840 60° Northeast 519 597 37,000 180 Climbing FlightAware
03:08PM 39.3630 -119.3650 60° Northeast 524 603 37,000  Level FlightAware
03:09PM 39.4150 -119.2490 60° Northeast 524 603 37,000  Level FlightAware
03:10PM 39.5470 -118.9490 60° Northeast 524 603 37,000  Level FlightAware
03:11PM 39.5910 -118.8520 59° Northeast 524 603 37,000  Level FlightAware
03:12PM 39.6290 -118.7660 60° Northeast 524 603 37,000  Level FlightAware
03:13PM 39.6780 -118.6550 60° Northeast 524 603 37,000  Level FlightAware
03:13PM 39.7160 -118.5690 60° Northeast 524 603 37,000  Level FlightAware
03:14PM 39.7660 -118.4580 60° Northeast 524 603 37,000  Level FlightAware
03:15PM 39.8030 -118.3740 60° Northeast 524 603 37,000  Level FlightAware
03:15PM 39.8530 -118.2600 60° Northeast 524 603 37,000  Level FlightAware
03:16PM 39.8920 -118.1720 60° Northeast 524 603 37,000  Level FlightAware
03:17PM 39.9290 -118.0880 60° Northeast 524 603 37,000  Level FlightAware
03:17PM 39.9780 -117.9790 60° Northeast 524 603 37,000  Level FlightAware
03:18PM 40.0170 -117.8900 60° Northeast 524 603 37,000  Level FlightAware
03:19PM 40.0640 -117.7830 60° Northeast 524 603 37,000  Level FlightAware
03:19PM 40.1010 -117.6990 60° Northeast 524 603 37,000  Level FlightAware
03:20PM 40.2406 -117.3247 60° Northeast 538 619 37,000  Level Oakland Center
03:21PM 40.3203 -117.1325 61° Northeast 537 618 37,000  Level Oakland Center
03:22PM 40.3928 -116.9569 61° Northeast 541 623 37,000  Level Oakland Center
03:23PM 40.4633 -116.7806 62° Northeast 543 625 37,000  Level Oakland Center
03:24PM 40.5317 -116.6156 61° Northeast 549 632 37,000  Level Oakland Center
03:25PM 40.6100 -116.4206 62° Northeast 543 625 37,000  Level Oakland Center
03:27PM 40.7000 -116.1958 62° Northeast 545 627 37,000  Level Salt Lake Center
03:28PM 40.7627 -116.0335 63° Northeast  Level FlightAware Approximate
03:28PM 40.7683 -116.0275 63° Northeast 545 627 37,000  Level Salt Lake Center
03:29PM 40.8350 -115.8606 62° Northeast 541 623 37,000  Level Salt Lake Center
03:30PM 40.9119 -115.6636 63° Northeast 540 621 37,000  Level Salt Lake Center
03:31PM 40.9789 -115.4947 62° Northeast 543 625 37,000  Level Salt Lake Center
03:32PM 41.0564 -115.2972 62° Northeast 542 624 37,000  Level Salt Lake Center
03:33PM 41.1206 -115.1272 63° Northeast 542 624 37,000  Level Salt Lake Center
03:34PM 41.1978 -114.9283 63° Northeast 542 624 37,000  Level Salt Lake Center
03:35PM 41.2581 -114.7697 63° Northeast 542 624 37,000  Level Salt Lake Center
03:36PM 41.3389 -114.5550 63° Northeast 542 624 37,000  Level Salt Lake Center
03:42PM 41.7670 -113.4010 63° Northeast 544 626 37,000  Level FlightAware
03:43PM 41.8110 -113.2800 64° Northeast 544 626 37,000  Level FlightAware
03:43PM 41.8460 -113.1840 64° Northeast 544 626 37,000  Level FlightAware
03:44PM 41.8980 -113.0420 64° Northeast 544 626 37,000  Level FlightAware
03:45PM 41.9410 -112.9230 64° Northeast 544 626 37,000  Level FlightAware
03:46PM 41.9860 -112.7990 64° Northeast 544 626 37,000  Level FlightAware
03:47PM 42.0170 -112.7130 64° Northeast 544 626 37,000  Level FlightAware
03:47PM 42.0630 -112.5870 64° Northeast 544 626 37,000  Level FlightAware
03:48PM 42.0960 -112.4930 65° Northeast 544 626 37,000  Level FlightAware
03:49PM 42.1420 -112.3660 64° Northeast 544 626 37,000  Level FlightAware
03:49PM 42.1740 -112.2780 64° Northeast 544 626 37,000  Level FlightAware
03:50PM 42.2310 -112.1200 64° Northeast 544 626 37,000  Level FlightAware
03:51PM 42.2700 -112.0130 64° Northeast 544 626 37,000  Level FlightAware
03:52PM 42.3260 -111.8570 64° Northeast 544 626 37,000  Level FlightAware
03:53PM 42.3610 -111.7610 64° Northeast 544 626 37,000  Level FlightAware
03:53PM 42.4772 -111.3742 64° Northeast 544 626 37,000  Level Salt Lake Center
03:54PM 42.5400 -111.1883 65° Northeast 544 626 37,000  Level Salt Lake Center
03:55PM 42.6025 -111.0011 66° East 545 627 37,000  Level Salt Lake Center
03:56PM 42.6731 -110.7908 65° Northeast 547 629 37,000  Level Salt Lake Center
03:57PM 42.7328 -110.6083 66° East 542 624 37,000  Level Salt Lake Center
03:58PM 42.7919 -110.4292 66° East 543 625 37,000  Level Salt Lake Center
03:59PM 42.8600 -110.2200 66° East 543 625 37,000  Level Salt Lake Center
04:00PM 42.9178 -110.0397 66° East 543 625 37,000  Level Salt Lake Center
04:02PM 42.9869 -109.8242 66° East 545 627 37,000  Level Salt Lake Center
04:03PM 43.0456 -109.6450 66° East 542 624 37,000  Level Salt Lake Center
04:04PM 43.1014 -109.4622 67° East 543 625 37,000  Level Salt Lake Center
04:05PM 43.1672 -109.2500 67° East 544 626 37,000  Level Salt Lake Center
04:06PM 43.2244 -109.0678 67° East 544 626 37,000  Level Salt Lake Center
04:07PM 43.2903 -108.8556 67° East 543 625 37,000  Level Salt Lake Center
04:08PM 43.3464 -108.6756 67° East 539 620 37,000  Level Salt Lake Center
04:09PM 43.4114 -108.4633 67° East 539 620 37,000  Level Salt Lake Center
04:10PM 43.4658 -108.2783 68° East 544 626 37,000  Level Salt Lake Center
04:11PM 43.5278 -108.0658 68° East 542 624 37,000  Level Salt Lake Center
04:12PM 43.5819 -107.8836 68° East 540 621 37,000  Level Salt Lake Center
04:13PM 43.6358 -107.6994 68° East 540 621 37,000  Level Salt Lake Center
04:14PM 43.6981 -107.4847 68° East 541 623 37,000  Level Salt Lake Center
04:15PM 43.7514 -107.3000 68° East 542 624 37,000  Level Salt Lake Center
04:16PM 43.8069 -107.1122 68° East 544 626 37,000  Level Denver Center
04:17PM 43.8686 -106.8975 68° East 540 621 37,000  Level Denver Center
04:18PM 43.9208 -106.7125 69° East 540 621 37,000  Level Denver Center
04:19PM 43.9817 -106.4947 69° East 542 624 37,000  Level Denver Center
04:20PM 44.0172 -106.3058 75° East 533 613 37,000  Level Denver Center
04:21PM 44.0664 -106.0867 73° East 531 611 37,000  Level Denver Center
04:22PM 44.1097 -105.8947 72° East 536 617 37,000  Level Denver Center
04:23PM 44.1561 -105.6733 74° East 537 618 37,000  Level Denver Center
04:24PM 44.1950 -105.4828 74° East 537 618 37,000  Level Denver Center
04:25PM 44.2414 -105.2686 73° East 534 615 37,000  Level Denver Center
04:26PM 44.2803 -105.0783 74° East 532 612 37,000  Level Denver Center
04:27PM 44.3186 -104.8900 74° East 528 608 37,000  Level Denver Center
04:28PM 44.3628 -104.6689 74° East 528 608 37,000  Level Denver Center
04:29PM 44.3997 -104.4803 75° East 526 605 37,000  Level Denver Center
04:30PM 44.4436 -104.2575 75° East 531 611 37,000  Level Denver Center
04:31PM 44.4800 -104.0669 75° East 531 611 37,000  Level Denver Center
04:32PM 44.5225 -103.8450 75° East 527 606 37,000  Level Denver Center
04:33PM 44.5586 -103.6531 75° East 530 610 37,000  Level Denver Center
04:34PM 44.5967 -103.4475 75° East 519 597 37,000  Level Denver Center
04:35PM 44.6336 -103.2500 75° East 522 601 37,000  Level Denver Center
04:36PM 44.6714 -103.0536 75° East 520 598 37,000  Level Denver Center
04:37PM 44.7061 -102.8581 76° East 518 596 37,000  Level Denver Center
04:38PM 44.7411 -102.6617 76° East 519 597 37,000  Level Denver Center
04:39PM 44.7544 -102.5822 77° East 519 597 37,000  Level Minneapolis Center
04:40PM 44.7956 -102.3481 76° East 516 594 37,000  Level Minneapolis Center
04:41PM 44.8308 -102.1533 76° East 514 592 37,000  Level Minneapolis Center
04:42PM 44.8517 -102.0372 76° East 511 588 37,000  Level Denver Center
04:42PM 44.8633 -101.9600 78° East 510 587 37,000  Level Minneapolis Center
04:43PM 44.8964 -101.7669 76° East 508 585 37,000  Level Minneapolis Center
04:44PM 44.9289 -101.5739 77° East 507 583 37,000  Level Minneapolis Center
04:45PM 44.9603 -101.3811 77° East 504 580 37,000  Level Minneapolis Center
04:46PM 44.9983 -101.1517 77° East 502 578 37,000  Level Minneapolis Center
04:47PM 45.0319 -100.9586 76° East 504 580 37,000  Level Minneapolis Center
04:48PM 45.0631 -100.7658 77° East 503 579 37,000  Level Minneapolis Center
04:49PM 45.0936 -100.5719 77° East 504 580 37,000  Level Minneapolis Center
04:50PM 45.1247 -100.3764 77° East 506 582 37,000  Level Minneapolis Center
04:51PM 45.1542 -100.1792 78° East 506 582 37,000  Level Minneapolis Center
04:52PM 45.1878 -99.9786 77° East 508 585 37,000  Level Minneapolis Center
04:53PM 45.2164 -99.7775 79° East 509 586 37,000  Level Minneapolis Center
04:59PM 45.3740 -98.6840 79° East 494 568 37,000  Level FlightAware
05:00PM 45.3910 -98.5560 79° East 493 567 37,000  Level FlightAware
05:01PM 45.4130 -98.4060 78° East 492 566 37,000  Level FlightAware
05:01PM 45.4360 -98.2540 78° East 491 565 37,000  Level FlightAware
05:02PM 45.4710 -98.0390 77° East 491 565 37,000  Level FlightAware
05:03PM 45.4860 -97.9420 78° East 491 565 37,000  Level FlightAware
05:04PM 45.5070 -97.8160 77° East 491 565 37,000  Level FlightAware
05:04PM 45.5320 -97.6410 78° East 488 562 37,000  Level FlightAware
05:05PM 45.5510 -97.5210 77° East 488 562 37,000  Level FlightAware
05:06PM 45.5740 -97.3630 78° East 487 560 37,000  Level FlightAware
05:07PM 45.5910 -97.2590 77° East 487 560 37,000  Level FlightAware
05:08PM 45.6180 -97.0930 77° East 487 560 37,000  Level FlightAware
05:08PM 45.6330 -97.0000 77° East 487 560 37,000  Level FlightAware
05:09PM 45.6590 -96.7880 80° East 491 565 37,000  Level FlightAware
05:10PM 45.6790 -96.6540 78° East 491 565 37,000  Level FlightAware
05:10PM 45.6990 -96.5160 78° East 490 564 37,000  Level FlightAware
05:11PM 45.7240 -96.3390 79° East 489 563 37,000  Level FlightAware
05:12PM 45.7440 -96.1970 79° East 489 563 37,000 120 Level FlightAware
05:13PM 45.7610 -96.0690 79° East 490 564 37,200 780 Climbing FlightAware
05:13PM 45.7790 -95.9450 78° East 483 556 38,100 900 Climbing FlightAware
05:14PM 45.7980 -95.8060 79° East 486 559 38,500 540 Climbing FlightAware
05:15PM 45.8220 -95.6290 79° East 490 564 39,000 300 Climbing FlightAware
05:16PM 45.8370 -95.5150 79° East 492 566 39,000  Level FlightAware
05:16PM 45.8550 -95.3750 79° East 494 568 39,000  Level FlightAware
05:17PM 45.8750 -95.2250 79° East 493 567 39,000  Level FlightAware
05:18PM 45.8900 -95.1160 79° East 493 567 39,000  Level FlightAware
05:19PM 45.9100 -94.9550 80° East 493 567 39,000  Level FlightAware
05:19PM 45.9260 -94.8300 80° East 494 568 39,000  Level FlightAware
05:20PM 45.9440 -94.6870 80° East 493 567 39,000  Level FlightAware
05:21PM 45.9600 -94.5580 80° East 495 570 39,000  Level FlightAware
05:21PM 45.9760 -94.4340 79° East 495 570 39,000  Level FlightAware
05:22PM 45.9940 -94.2860 80° East 496 571 39,000  Level FlightAware
05:23PM 46.0100 -94.1510 80° East 496 571 39,000  Level FlightAware
05:23PM 46.0270 -94.0100 80° East 495 570 39,000  Level FlightAware
05:24PM 46.0430 -93.8790 80° East 494 568 39,000  Level FlightAware
05:25PM 46.0580 -93.7490 81° East 493 567 39,000  Level FlightAware
05:26PM 46.0750 -93.6000 81° East 492 566 39,000  Level FlightAware
05:26PM 46.0910 -93.4640 80° East 492 566 39,000  Level FlightAware
05:27PM 46.1050 -93.3440 80° East 491 565 39,000  Level FlightAware
05:28PM 46.1210 -93.2010 81° East 489 563 39,000  Level FlightAware
05:28PM 46.1370 -93.0590 81° East 488 562 39,000  Level FlightAware
05:29PM 46.1510 -92.9320 81° East 486 559 39,000  Level FlightAware
05:30PM 46.1660 -92.7920 81° East 484 557 39,000  Level FlightAware
05:30PM 46.1800 -92.6640 81° East 483 556 39,000  Level FlightAware
05:31PM 46.1930 -92.5360 82° East 483 556 39,000  Level FlightAware
05:32PM 46.2090 -92.3910 81° East 482 555 39,000  Level FlightAware
05:32PM 46.2140 -92.2830 86° East 484 557 39,000  Level FlightAware
05:33PM 46.2070 -92.1260 94° East 484 557 39,000  Level FlightAware
05:34PM 46.1990 -91.9970 95° East 484 557 39,000  Level FlightAware
05:35PM 46.1900 -91.8530 95° East 483 556 39,000  Level FlightAware
05:35PM 46.1820 -91.7230 95° East 484 557 39,000  Level FlightAware
05:36PM 46.1740 -91.5920 95° East 484 557 39,000  Level FlightAware
05:37PM 46.1650 -91.4550 95° East 483 556 39,000  Level FlightAware
05:37PM 46.1560 -91.3160 95° East 483 556 39,000  Level FlightAware
05:38PM 46.1470 -91.1880 96° East 484 557 39,000  Level FlightAware
05:39PM 46.1370 -91.0470 96° East 484 557 39,000  Level FlightAware
05:40PM 46.1280 -90.9160 96° East 484 557 39,000  Level FlightAware
05:40PM 46.1180 -90.7780 96° East 484 557 39,000  Level FlightAware
05:41PM 46.1090 -90.6500 96° East 485 558 39,000  Level FlightAware
05:42PM 46.1000 -90.5330 96° East 485 558 39,000  Level FlightAware
05:42PM 46.0890 -90.3780 96° East 484 557 39,000  Level FlightAware
05:43PM 46.0780 -90.2410 97° East 484 557 39,000  Level FlightAware
05:44PM 46.0680 -90.1060 96° East 485 558 39,000  Level FlightAware
05:44PM 46.0580 -89.9750 96° East 484 557 39,000  Level FlightAware
05:45PM 46.0430 -89.7920 97° East 484 557 39,000  Level FlightAware
05:46PM 46.0320 -89.6580 97° East 483 556 39,000  Level FlightAware
05:47PM 46.0210 -89.5240 97° East 483 556 39,000  Level FlightAware
05:47PM 46.0110 -89.4040 97° East 482 555 39,000  Level FlightAware
05:48PM 46.0000 -89.2750 97° East 482 555 39,000  Level FlightAware
05:49PM 45.9880 -89.1340 97° East 482 555 39,000  Level FlightAware
05:50PM 45.9770 -89.0080 97° East 482 555 39,000  Level FlightAware
05:50PM 45.9690 -88.9170 97° East 483 556 39,000  Level FlightAware
05:51PM 45.9590 -88.8090 98° East 483 556 39,000  Level FlightAware
05:51PM 45.9460 -88.6570 97° East 485 558 39,000  Level FlightAware
05:52PM 45.9350 -88.5390 98° East 485 558 39,000  Level FlightAware
05:53PM 45.9150 -88.3190 97° East 487 560 39,000  Level FlightAware
05:54PM 45.8980 -88.1350 97° East 487 560 39,000  Level FlightAware
05:55PM 45.8890 -88.0340 97° East 487 560 39,000  Level FlightAware
05:55PM 45.8800 -87.9270 97° East 487 560 39,000  Level FlightAware
05:56PM 45.8690 -87.7960 97° East 487 560 39,000  Level FlightAware
05:57PM 45.8600 -87.6900 97° East 487 560 39,000  Level FlightAware
05:58PM 45.8480 -87.5590 97° East 487 560 39,000  Level FlightAware
05:58PM 45.8390 -87.4520 97° East 487 560 39,000  Level FlightAware
05:59PM 45.8260 -87.2940 97° East 487 560 39,000  Level FlightAware
06:00PM 45.8140 -87.1520 97° East 487 560 39,000  Level FlightAware
06:01PM 45.8030 -87.0240 97° East 487 560 39,000  Level FlightAware
06:02PM 45.7940 -86.9260 97° East 487 560 39,000  Level FlightAware
06:02PM 45.7350 -86.5540 103° East 499 574 39,000  Level FlightAware
06:03PM 45.7230 -86.4520 100° East 499 574 39,000  Level FlightAware
06:03PM 45.7080 -86.3180 99° East 500 575 39,000  Level FlightAware
06:04PM 45.6930 -86.1800 99° East 500 575 39,000  Level FlightAware
06:05PM 45.6780 -86.0540 100° East 500 575 39,000  Level FlightAware
06:06PM 45.6620 -85.9100 99° East 500 575 39,000  Level FlightAware
06:06PM 45.6450 -85.7700 100° East 501 577 39,000  Level FlightAware
06:07PM 45.6290 -85.6260 99° East 502 578 39,000  Level FlightAware
06:08PM 45.6130 -85.4930 100° East 502 578 39,000  Level FlightAware
06:08PM 45.5960 -85.3560 100° East 503 579 39,000  Level FlightAware
06:09PM 45.5800 -85.2260 100° East 503 579 39,000  Level FlightAware
06:10PM 45.5640 -85.0900 99° East 503 579 39,000  Level FlightAware
06:11PM 45.5290 -84.8170 100° East 503 579 39,000  Level FlightAware
06:12PM 45.5130 -84.6900 100° East 505 581 39,000  Level FlightAware
06:12PM 45.4960 -84.5540 100° East 506 582 39,000  Level FlightAware
06:13PM 45.4780 -84.4190 101° East 507 583 39,000  Level FlightAware
06:14PM 45.4590 -84.2730 100° East 508 585 39,000  Level FlightAware
06:15PM 45.4420 -84.1410 100° East 508 585 39,000  Level FlightAware
06:15PM 45.4240 -84.0060 101° East 509 586 39,000  Level FlightAware
06:16PM 45.4040 -83.8580 101° East 510 587 39,000  Level FlightAware
06:17PM 45.3860 -83.7220 101° East 510 587 39,000  Level FlightAware
06:17PM 45.3680 -83.5960 101° East 511 588 39,000  Level FlightAware
06:18PM 45.3470 -83.4390 101° East 513 590 39,000  Level FlightAware
06:19PM 45.3270 -83.2990 101° East 514 592 39,000  Level FlightAware
06:19PM 45.3090 -83.1660 101° East 514 592 39,000  Level FlightAware
06:20PM 45.2880 -83.0250 102° East 514 592 39,000  Level FlightAware
06:21PM 45.2710 -82.9030 101° East 514 592 39,000  Level FlightAware
06:22PM 45.2480 -82.7480 102° East 514 592 39,000  Level FlightAware
06:22PM 45.2290 -82.6120 101° East 514 592 39,000  Level FlightAware
06:23PM 45.2070 -82.4780 103° East 515 593 39,000  Level FlightAware
06:24PM 45.1800 -82.3460 106° East 516 594 39,000  Level FlightAware
06:24PM 45.1490 -82.2040 107° East 517 595 39,000  Level FlightAware
06:26PM 45.0970 -81.9750 108° East 519 597 39,000  Level FlightAware
06:26PM 45.0690 -81.8490 107° East 520 598 39,000  Level FlightAware
06:27PM 45.0390 -81.7170 108° East 521 600 39,000  Level FlightAware
06:28PM 45.0050 -81.5690 108° East 524 603 39,000  Level FlightAware
06:28PM 44.9800 -81.4580 108° East 524 603 39,000  Level FlightAware
06:29PM 44.9460 -81.3130 108° East 525 604 39,000  Level FlightAware
06:30PM 44.9180 -81.1920 108° East 525 604 39,000  Level FlightAware
06:31PM 44.8700 -80.9870 108° East 526 605 39,000  Level FlightAware
06:31PM 44.8440 -80.8760 108° East 525 604 39,000  Level FlightAware
06:32PM 44.8130 -80.7440 108° East 526 605 39,000  Level FlightAware
06:33PM 44.7780 -80.5980 109° East 525 604 39,000  Level FlightAware
06:33PM 44.7490 -80.4770 109° East 525 604 39,000  Level FlightAware
06:34PM 44.7050 -80.2940 109° East 523 602 39,000  Level FlightAware
06:35PM 44.6750 -80.1740 109° East 522 601 39,000  Level FlightAware
06:36PM 44.6380 -80.0230 109° East 519 597 39,000  Level FlightAware
06:37PM 44.5990 -79.8620 109° East 518 596 39,000  Level FlightAware
06:37PM 44.5630 -79.7190 109° East 518 596 39,000  Level FlightAware
06:38PM 44.5300 -79.5960 111° Southeast 517 595 39,000  Level FlightAware
06:39PM 44.4940 -79.4560 110° East 516 594 39,000  Level FlightAware
06:39PM 44.4610 -79.3340 111° Southeast 514 592 39,000  Level FlightAware
06:40PM 44.4240 -79.1920 110° East 514 592 39,000  Level FlightAware
06:41PM 44.3900 -79.0660 111° Southeast 513 590 39,000  Level FlightAware
06:42PM 44.3530 -78.9260 110° East 513 590 39,000  Level FlightAware
06:42PM 44.3190 -78.8020 111° Southeast 513 590 39,000  Level FlightAware
06:43PM 44.2810 -78.6630 111° Southeast 514 592 39,000  Level FlightAware
06:44PM 44.2480 -78.5390 110° East 514 592 39,000  Level FlightAware
06:44PM 44.2110 -78.4070 111° Southeast 514 592 39,000  Level FlightAware
06:45PM 44.1810 -78.2950 110° East 514 592 39,000  Level FlightAware
06:46PM 44.1410 -78.1530 111° Southeast 515 593 39,000  Level FlightAware
06:46PM 44.1050 -78.0220 111° Southeast 516 594 39,000  Level FlightAware
06:47PM 44.0690 -77.8930 111° Southeast 516 594 39,000  Level FlightAware
06:48PM 44.0360 -77.7750 111° Southeast 516 594 39,000  Level FlightAware
06:48PM 44.0000 -77.6470 111° Southeast 515 593 39,000  Level FlightAware
06:49PM 43.9590 -77.5050 112° Southeast 517 595 39,000  Level FlightAware
06:50PM 43.9260 -77.3890 112° Southeast 518 596 39,000  Level FlightAware
06:51PM 43.8840 -77.2430 112° Southeast 520 598 39,000  Level FlightAware
06:51PM 43.8480 -77.1200 112° Southeast 521 600 39,000  Level FlightAware
06:52PM 43.8140 -77.0010 112° Southeast 522 601 39,000  Level FlightAware
06:53PM 43.7740 -76.8630 112° Southeast 522 601 39,000  Level FlightAware
06:53PM 43.7270 -76.7280 116° Southeast 526 605 39,000  Level FlightAware
06:54PM 43.6690 -76.6370 131° Southeast 525 604 39,000 -240 Level FlightAware
06:55PM 43.5750 -76.5110 136° Southeast 531 611 38,700 -840 Descending FlightAware
06:56PM 43.5010 -76.4140 136° Southeast 533 613 37,700 -1,260 Descending FlightAware
06:56PM 43.4250 -76.3140 136° Southeast 550 633 37,000 -540 Descending FlightAware
06:57PM 43.3460 -76.2110 137° Southeast 557 641 37,000  Level FlightAware
06:58PM 43.2740 -76.1160 136° Southeast 555 639 37,000  Level FlightAware
06:58PM 43.1940 -76.0120 137° Southeast 552 635 37,000  Level FlightAware
06:59PM 43.1130 -75.9080 137° Southeast 550 633 37,000  Level FlightAware
07:00PM 43.0550 -75.8320 136° Southeast 548 631 37,000  Level FlightAware
07:01PM 42.9440 -75.6880 136° Southeast 546 628 37,000  Level FlightAware
07:01PM 42.8610 -75.5820 137° Southeast 544 626 37,000 -600 Level FlightAware
07:02PM 42.7830 -75.4820 137° Southeast 549 632 36,200 -1,620 Descending FlightAware
07:03PM 42.6990 -75.3760 137° Southeast 569 655 34,700 -1,680 Descending FlightAware
07:03PM 42.6230 -75.2800 137° Southeast 571 657 33,900 -1,260 Descending FlightAware
07:04PM 42.5440 -75.1800 137° Southeast 578 665 33,000 -1,680 Descending FlightAware
07:05PM 42.4600 -75.0740 137° Southeast 570 656 31,600 -1,140 Descending FlightAware
07:06PM 42.3870 -74.9790 136° Southeast 568 654 31,400 -180 Descending FlightAware
07:06PM 42.3290 -74.9040 136° Southeast 568 654 31,400 -960 Level FlightAware
07:09PM 41.9790 -74.4700 137° Southeast 538 619 28,000 -960 Descending FlightAware
07:10PM 41.9150 -74.3480 125° Southeast 542 624 28,000 -720 Level FlightAware
07:11PM 41.8310 -74.2400 136° Southeast 534 615 27,000 -1,980 Descending FlightAware
07:11PM 41.7460 -74.1890 156° South 508 585 25,200 -2,400 Descending FlightAware
07:12PM 41.6500 -74.1550 165° South 508 585 23,800 -1,980 Descending FlightAware
07:13PM 41.5600 -74.1240 166° South 493 567 22,500 -1,920 Descending FlightAware
07:14PM 41.4630 -74.0910 166° South 484 557 21,100 -1,860 Descending FlightAware
07:14PM 41.3760 -74.0700 170° South 463 533 20,000 -840 Descending FlightAware
07:15PM 41.2520 -74.0830 185° South 453 521 19,800 -120 Descending FlightAware
07:16PM 41.1710 -74.0960 187° South 403 464 19,800 -240 Level FlightAware
07:17PM 41.1000 -74.1070 187° South 363 418 19,500 -660 Descending FlightAware
07:17PM 41.0415 -74.1160 187° South 361 415 19,000 -480 Descending FlightAware ADS-B
07:18PM 40.9907 -74.1238 187° South 363 418 19,000  Level FlightAware ADS-B
07:18PM 40.9381 -74.1264 182° South 374 430 19,000  Level FlightAware ADS-B
07:18PM 40.9280 -74.1228 165° South 378 435 19,000  Level FlightAware ADS-B
07:18PM 40.9188 -74.1177 157° South 381 438 19,000  Level FlightAware ADS-B
07:18PM 40.9102 -74.1111 150° Southeast 383 441 19,000 -540 Level FlightAware ADS-B
07:19PM 40.9015 -74.1024 143° Southeast 383 441 18,900 -1,200 Descending FlightAware ADS-B
07:19PM 40.8847 -74.0759 130° Southeast 380 437 18,600 -1,500 Descending FlightAware ADS-B
07:19PM 40.8562 -74.0171 123° Southeast 380 437 17,800 -1,620 Descending FlightAware ADS-B
07:20PM 40.8180 -73.9370 122° Southeast 377 434 16,700 -1,800 Descending FlightAware
07:21PM 40.7680 -73.8300 122° Southeast 368 423 14,900 -1,920 Descending FlightAware
07:21PM 40.7470 -73.7570 111° Southeast 361 415 13,800 -1,380 Descending FlightAware
07:22PM 40.7190 -73.6600 111° Southeast 349 402 13,000 -720 Descending FlightAware
07:22PM 40.7080 -73.6380 123° Southeast 352 405 13,100 180 Climbing FlightAware
07:23PM 40.6850 -73.6150 143° Southeast 351 404 13,100 -1,200 Level FlightAware
07:23PM 40.6260 -73.5910 163° South 336 387 12,000 -1,980 Descending FlightAware
07:24PM 40.5700 -73.5790 171° South 324 373 10,600 -2,280 Descending FlightAware
07:25PM 40.5280 -73.5930 194° South 304 350 9,500 -2,340 Descending FlightAware
07:25PM 40.4900 -73.6130 202° Southwest 298 343 8,300 -2,160 Descending FlightAware
07:26PM 40.4550 -73.6320 202° Southwest 289 333 7,400 -2,040 Descending FlightAware
07:26PM 40.4380 -73.6420 204° Southwest 281 323 6,900 -2,280 Descending FlightAware
07:26PM 40.4230 -73.6610 224° Southwest 269 310 6,300 -2,220 Descending FlightAware
07:26PM 40.4020 -73.6950 231° Southwest 262 302 5,300 -1,980 Descending FlightAware
07:27PM 40.3820 -73.7290 232° Southwest 250 288 4,500 -1,440 Descending FlightAware
07:27PM 40.3630 -73.7620 233° Southwest 224 258 4,000 -1,080 Descending FlightAware
07:28PM 40.3460 -73.7910 232° Southwest 208 239 3,500 -1,260 Descending FlightAware
07:28PM 40.3400 -73.8030 237° Southwest 208 239 3,200 -1,020 Descending FlightAware
07:28PM 40.3370 -73.8190 256° West 208 239 3,100 -180 Descending FlightAware
07:29PM 40.3390 -73.8560 274° West 208 239 3,100  Level FlightAware
07:29PM 40.3420 -73.8740 282° West 206 237 3,100  Level FlightAware
07:29PM 40.3510 -73.8890 308° West 208 239 3,100  Level FlightAware
07:29PM 40.3610 -73.8970 329° Northwest 209 241 3,100  Level FlightAware
07:30PM 40.3830 -73.9130 331° Northwest 211 243 3,100  Level FlightAware
07:30PM 40.4120 -73.9180 353° North 217 250 3,100  Level FlightAware
07:31PM 40.4700 -73.9040 10° North 191 220 3,100  Level FlightAware
07:32PM 40.4820 -73.8940 32° Northeast 193 222 3,100 -420 Level FlightAware
07:32PM 40.5030 -73.8780 30° Northeast 196 226 2,800 -900 Descending FlightAware
07:33PM 40.5250 -73.8620 29° Northeast 196 226 2,300 -1,020 Descending FlightAware
07:33PM 40.5360 -73.8520 35° Northeast 190 219 2,100 -960 Descending FlightAware
07:33PM 40.5530 -73.8400 28° Northeast 180 207 1,700 -1,020 Descending FlightAware
07:34PM 40.5740 -73.8230 32° Northeast 155 178 1,200 -840 Descending FlightAware
07:34PM 40.5810 -73.8170 33° Northeast 142 163 1,100 -720 Descending FlightAware
07:35PM 40.5970 -73.8050 30° Northeast 127 146 700 -720 Descending FlightAware
07:35PM 40.6130 -73.7930 30° Northeast 126 145 400 -600 Descending FlightAware
07:36PM 40.6300 -73.7800 30° Northeast 105 121 -780 Descending FlightAware
07:36PM 40.6360 -73.7750 32° Northeast 34 39  Level FlightAware
07:37PM 40.6380 -73.7750 360° North 17 20  Level FlightAware
07:37PM 40.6390 -73.7740 37° Northeast 17 20  Level FlightAware
07:39PM 40.6400 -73.7730 37° Northeast 18 21  Level FlightAware
07:40PM 40.6400 -73.7740 270° West  Level FlightAware
07:42PM 40.6390 -73.7750 180° South 27 31  Level FlightAware
07:42PM 40.6380 -73.7760 217° Southwest 2 2  Level FlightAware